首页
METAR-TAF:

METAR-TAF

机场 :

蒙特利尔-米拉贝勒国际机场

蒙特利尔米拉贝尔, 魁北克, 加拿大

纬度: 45-41N, 经度: 074-02W, 海拔: 82米

当前天气观测

该预报发布于26分钟前的00:00 UTC
风速5节,风向东北,在北转东北之间变化
温度 -7°C
湿度 93%
气压 1023 hPa
能見度: 4.0公里
小雪

METAR: CYMX 120000Z 05005KT 020V080 2 1/2SM -SN VV020 M07/M08 A3022 RMK SN8 /S01/ SLP239

时间: 19:26 (00:26 UTC)

预报

该预报发布于48分钟前的23:38 UTC
预报有效从12日的 00点(UTC)到 12日的 24点(UTC)
风速5节,风向东转东北
阴天层高于1200英尺
小雪
短暂存在
从 12日的 00点(UTC)到 12日的 01点(UTC)
能見度: 4.8公里
阴天层高于2500英尺
小雪
从 12日的 0100点(UTC)
风速10节,风向东北,有时为20节阵风
能見度: 1.2公里
层高于700英尺
小雪
短暂存在
从 12日的 01点(UTC)到 12日的 10点(UTC)
能見度: 3.2公里
阴天层高于1000英尺
小雪
从 12日的 1000点(UTC)
风速10节,风向,有时为20节阵风
能見度: 3.2公里
层高于1000英尺
小雪
从 12日的 1500点(UTC)
风速8节,风向西北
能見度: 10公里
多云层高于3000英尺
小雪
成为
从 12日的 16点(UTC)到 12日的 18点(UTC)
风速10节,风向西
从 12日的 2000点(UTC)
风速10节,风向西,有时为20节阵风
能見度: 10公里
多云层高于3000英尺

TAF: CYMX 112338Z 1200/1224 06005KT 11/2SM -SN OVC012 TEMPO 1200/1201 3SM -SN OVC025 FM120100 04010G20KT 3/4SM -SN VV007 TEMPO 1201/1210 2SM -SN OVC010 FM121000 01010G20KT 2SM -SN VV010 FM121500 32008KT P6SM -SN BKN030 BECMG 1216/1218 28010KT FM122000 28010G20KT P6SM BKN030 RMK NXT FCST BY 120600Z

超过4000个机场的气象观测和天气预报(METAR&TAF报告)。

可查询的气象台以黄色和红色小点在地图上表示。

将鼠标移到小点上方,可查看气象台名称。

然后点击查看天气观测和预报。

如需切换地图:点击带黑十字的绿色按钮放大地图;点击带横线的绿色按钮缩小地图;或者点击绿色箭头查看邻近地区的地图。


METAR-TAF: